createdAt,value
2023-01-01T00:00:14.672Z,100315.69
2023-01-01T00:03:08.941Z,100293.91
2023-01-01T00:05:56.570Z,100243.66
2023-01-01T00:08:39.284Z,100263.66
2023-01-01T00:11:18.445Z,100227.56
2023-01-01T00:13:47.806Z,100236.13
2023-01-01T00:16:23.033Z,100199.63
2023-01-01T00:18:53.247Z,100212.13
2023-01-01T00:21:29.740Z,100190.34
2023-01-01T00:24:09.292Z,100147.69
2023-01-01T00:26:54.642Z,100138.06
2023-01-01T00:29:25.128Z,100119.34
2023-01-01T00:31:55.791Z,100108.16
2023-01-01T00:34:33.304Z,100087.06
2023-01-01T00:37:24.879Z,100081.41
2023-01-01T00:40:20.432Z,100066.53
2023-01-01T00:42:53.594Z,100093.19
2023-01-01T00:45:23.124Z,100083.97
2023-01-01T00:48:31.654Z,100115.09
2023-01-01T00:54:51.714Z,100144.03
2023-01-01T00:57:22.753Z,100165.13
2023-01-01T00:59:56.361Z,100176.94
2023-01-01T01:02:31.632Z,100205.59
2023-01-01T01:05:01.886Z,100220.81
2023-01-01T01:07:38.220Z,100251.69
2023-01-01T01:10:07.400Z,100281.25
2023-01-01T01:12:42.599Z,100289.28
2023-01-01T01:15:11.683Z,100272.53
2023-01-01T01:17:47.018Z,100290.66
2023-01-01T01:20:15.487Z,100311.66
2023-01-01T01:22:43.457Z,100303.25
2023-01-01T01:25:13.908Z,100298.03
2023-01-01T01:27:46.279Z,100284.03
2023-01-01T01:30:24.439Z,100289.88
2023-01-01T01:32:52.381Z,100264.91
2023-01-01T01:35:20.610Z,100257.38
2023-01-01T01:37:49.312Z,100251.28
2023-01-01T01:40:19.680Z,100225.16
2023-01-01T01:42:51.651Z,100226.31
2023-01-01T01:45:38.189Z,100204.38
2023-01-01T01:48:14.992Z,100219.50
2023-01-01T01:50:55.272Z,100230.13
2023-01-01T01:53:34.236Z,100216.78
2023-01-01T01:56:25.466Z,100220.09
2023-01-01T01:59:20.237Z,100230.28
2023-01-01T02:02:14.854Z,100225.75
2023-01-01T02:05:02.340Z,100231.06
2023-01-01T02:07:46.822Z,100239.56
2023-01-01T02:10:24.507Z,100266.84
2023-01-01T02:12:54.578Z,100265.69
2023-01-01T02:15:30.333Z,100269.66
2023-01-01T02:18:02.938Z,100304.19
2023-01-01T02:20:41.081Z,100299.38
2023-01-01T02:23:44.756Z,100297.66
2023-01-01T02:26:59.212Z,100255.06
2023-01-01T02:30:07.530Z,100277.78
2023-01-01T02:32:47.160Z,100302.47
2023-01-01T02:35:36.529Z,100313.03
2023-01-01T02:38:09.504Z,100318.63
2023-01-01T02:40:48.205Z,100322.63
2023-01-01T02:43:24.622Z,100344.00
2023-01-01T02:45:55.064Z,100344.69
2023-01-01T02:48:42.726Z,100346.56
2023-01-01T02:51:29.220Z,100345.38
2023-01-01T02:54:06.806Z,100344.28
2023-01-01T02:56:45.645Z,100347.25
2023-01-01T02:59:51.326Z,100362.34
2023-01-01T03:02:28.347Z,100366.03
2023-01-01T03:05:09.587Z,100366.03
2023-01-01T03:07:50.085Z,100345.00
2023-01-01T03:10:24.537Z,100344.84
2023-01-01T03:12:57.866Z,100337.28
2023-01-01T03:15:31.571Z,100331.63
2023-01-01T03:18:07.284Z,100348.13
2023-01-01T03:20:40.475Z,100369.06
2023-01-01T03:23:13.818Z,100431.53
2023-01-01T03:25:47.832Z,100462.97
2023-01-01T03:28:20.925Z,100470.53
2023-01-01T03:30:51.463Z,100529.00
2023-01-01T03:33:25.831Z,100532.59
2023-01-01T03:35:57.411Z,100498.84
2023-01-01T03:38:37.803Z,100527.75
2023-01-01T03:41:11.625Z,100479.66
2023-01-01T03:43:46.141Z,100458.78
2023-01-01T03:47:06.329Z,100458.78
2023-01-01T03:49:37.276Z,100432.44
2023-01-01T03:52:22.497Z,100452.38
2023-01-01T03:54:59.306Z,100448.59
2023-01-01T03:57:45.818Z,100470.81
2023-01-01T04:00:17.183Z,100462.38
2023-01-01T04:02:56.335Z,100455.97
2023-01-01T04:05:29.481Z,100455.34
2023-01-01T04:08:01.966Z,100455.47
2023-01-01T04:10:32.457Z,100474.75
2023-01-01T04:13:04.716Z,100478.63
2023-01-01T04:15:36.191Z,100437.84
2023-01-01T04:18:09.643Z,100391.72
2023-01-01T04:20:39.443Z,100363.03
2023-01-01T04:23:08.642Z,100339.69
2023-01-01T04:25:36.856Z,100306.38
2023-01-01T04:28:05.022Z,100269.56
2023-01-01T04:33:05.819Z,100252.69
2023-01-01T04:35:47.176Z,100235.50
2023-01-01T04:38:17.509Z,100215.81
2023-01-01T04:40:52.479Z,100214.09
2023-01-01T04:43:33.346Z,100176.47
2023-01-01T04:46:02.886Z,100222.09
2023-01-01T04:48:33.417Z,100228.81
2023-01-01T04:51:10.755Z,100243.56
2023-01-01T04:53:39.370Z,100280.22
2023-01-01T04:56:10.661Z,100293.88
2023-01-01T04:58:42.849Z,100330.06
2023-01-01T05:01:16.403Z,100320.28
2023-01-01T05:03:46.841Z,100360.38
2023-01-01T05:06:18.670Z,100349.09
2023-01-01T05:08:49.526Z,100352.53
2023-01-01T05:11:19.450Z,100370.84
2023-01-01T05:13:52.259Z,100390.78
2023-01-01T05:16:26.956Z,100397.97
2023-01-01T05:18:55.480Z,100393.25
2023-01-01T05:21:28.683Z,100426.06
2023-01-01T05:23:59.701Z,100435.84
2023-01-01T05:26:29.601Z,100428.78
2023-01-01T05:29:00.985Z,100439.28
2023-01-01T05:31:31.487Z,100447.13
2023-01-01T05:36:29.936Z,100460.78
2023-01-01T05:38:59.071Z,100491.16
2023-01-01T05:41:27.814Z,100504.75
2023-01-01T05:43:58.611Z,100522.72
2023-01-01T05:46:26.845Z,100558.69
2023-01-01T05:48:56.068Z,100577.47
2023-01-01T05:51:26.538Z,100612.03
2023-01-01T05:53:56.972Z,100609.75
2023-01-01T05:56:25.533Z,100620.22
2023-01-01T05:58:54.203Z,100637.69
2023-01-01T06:01:24.037Z,100650.97
2023-01-01T06:03:56.147Z,100687.25
2023-01-01T06:06:28.794Z,100685.38
2023-01-01T06:09:00.606Z,100694.44
2023-01-01T06:11:35.864Z,100690.22
2023-01-01T06:14:04.109Z,100706.03
2023-01-01T06:16:50.570Z,100696.53
2023-01-01T06:19:34.152Z,100723.34
2023-01-01T06:22:10.164Z,100731.53
2023-01-01T06:24:45.097Z,100744.69
2023-01-01T06:27:16.517Z,100762.09
2023-01-01T06:29:47.583Z,100764.91
2023-01-01T06:32:16.232Z,100791.47
2023-01-01T06:34:44.255Z,100799.47
2023-01-01T06:37:14.141Z,100821.72
2023-01-01T06:39:50.420Z,100827.75
2023-01-01T06:42:19.881Z,100841.25
2023-01-01T06:44:47.888Z,100845.38
2023-01-01T06:47:15.959Z,100851.03
2023-01-01T06:49:43.995Z,100858.50
2023-01-01T06:52:12.204Z,100871.50
2023-01-01T06:54:44.621Z,100882.44
2023-01-01T06:57:16.018Z,100891.72
2023-01-01T06:59:43.998Z,100882.75
2023-01-01T07:02:13.143Z,100883.63
2023-01-01T07:04:41.329Z,100887.41
2023-01-01T07:07:09.293Z,100896.56
2023-01-01T07:09:38.509Z,100903.09
2023-01-01T07:12:09.073Z,100896.81
2023-01-01T07:14:39.432Z,100909.22
2023-01-01T07:17:09.068Z,100896.00
2023-01-01T07:19:36.996Z,100890.13
2023-01-01T07:22:05.968Z,100901.19
2023-01-01T07:24:35.696Z,100897.72
2023-01-01T07:27:03.549Z,100910.28
2023-01-01T07:29:31.477Z,100912.13
2023-01-01T07:32:00.885Z,100924.16
2023-01-01T07:34:28.874Z,100922.38
2023-01-01T07:37:00.488Z,100932.03
2023-01-01T07:39:30.721Z,100930.34
2023-01-01T07:42:04.864Z,100922.94
2023-01-01T07:44:35.564Z,100951.13
2023-01-01T07:47:06.894Z,100955.94
2023-01-01T07:49:40.192Z,100948.06
2023-01-01T07:52:08.531Z,100960.25
2023-01-01T07:54:40.506Z,100955.88
2023-01-01T07:57:09.888Z,100964.25
2023-01-01T07:59:39.179Z,100968.94
2023-01-01T08:02:11.755Z,100967.31
2023-01-01T08:04:42.421Z,100984.38
2023-01-01T08:07:11.772Z,100981.22
2023-01-01T08:09:40.051Z,100980.63
2023-01-01T08:12:08.369Z,100994.72
2023-01-01T08:14:38.622Z,100992.41
2023-01-01T08:17:08.161Z,100995.66
2023-01-01T08:19:37.328Z,100994.84
2023-01-01T08:22:06.741Z,101014.50
2023-01-01T08:24:34.771Z,101005.03
2023-01-01T08:27:02.650Z,101013.75
2023-01-01T08:29:30.909Z,101022.66
2023-01-01T08:32:01.382Z,101037.47
2023-01-01T08:34:30.622Z,101047.06
2023-01-01T08:36:59.790Z,101043.00
2023-01-01T08:39:32.417Z,101030.91
2023-01-01T08:42:03.805Z,101011.16
2023-01-01T08:44:38.975Z,101026.09
2023-01-01T08:47:09.949Z,101001.16
2023-01-01T08:49:47.743Z,101016.72
2023-01-01T08:52:16.391Z,101018.56
2023-01-01T08:54:48.318Z,101025.34
2023-01-01T08:57:16.467Z,101015.72
2023-01-01T08:59:44.421Z,101014.84
2023-01-01T09:02:13.317Z,101018.56
2023-01-01T09:04:43.837Z,101029.69
2023-01-01T09:07:11.819Z,101036.91
2023-01-01T09:09:42.371Z,101035.97
2023-01-01T09:12:19.789Z,101042.22
2023-01-01T09:14:48.409Z,101048.44
2023-01-01T09:17:17.307Z,101038.44
2023-01-01T09:19:50.238Z,101056.13
2023-01-01T09:22:18.163Z,101046.59
2023-01-01T09:24:47.342Z,101061.41
2023-01-01T09:27:20.185Z,101063.31
2023-01-01T09:29:48.337Z,101075.50
2023-01-01T09:32:16.427Z,101088.78
2023-01-01T09:34:51.952Z,101087.34
2023-01-01T09:37:21.873Z,101094.81
2023-01-01T09:39:51.004Z,101088.56
2023-01-01T09:42:39.604Z,101092.28
2023-01-01T09:45:21.450Z,101092.00
2023-01-01T09:47:53.475Z,101104.28
2023-01-01T09:50:25.780Z,101106.91
2023-01-01T09:52:57.850Z,101111.28
2023-01-01T09:55:29.235Z,101101.34
2023-01-01T09:57:58.619Z,101125.19
2023-01-01T10:00:32.444Z,101111.00
2023-01-01T10:03:14.488Z,101129.56
2023-01-01T10:05:54.032Z,101139.41
2023-01-01T10:08:46.640Z,101130.28
2023-01-01T10:11:28.813Z,101133.81
2023-01-01T10:14:03.005Z,101142.09
2023-01-01T10:16:41.530Z,101129.13
2023-01-01T10:19:23.644Z,101123.09
2023-01-01T10:21:54.141Z,101126.53
2023-01-01T10:24:46.826Z,101138.75
2023-01-01T10:27:27.380Z,101152.03
2023-01-01T10:30:04.594Z,101161.94
2023-01-01T10:32:43.436Z,101164.34
2023-01-01T10:35:30.341Z,101180.25
2023-01-01T10:38:40.025Z,101181.06
2023-01-01T10:41:19.314Z,101187.94
2023-01-01T10:43:50.106Z,101196.09
2023-01-01T10:46:37.594Z,101197.22
2023-01-01T10:49:13.557Z,101198.50
2023-01-01T10:51:49.255Z,101198.94
2023-01-01T10:54:33.027Z,101215.34
2023-01-01T10:57:17.281Z,101199.59
2023-01-01T10:59:54.686Z,101213.97
2023-01-01T11:02:30.826Z,101197.94
2023-01-01T11:05:21.053Z,101196.31
2023-01-01T11:08:00.646Z,101207.47
2023-01-01T11:10:30.722Z,101188.16
2023-01-01T11:13:09.524Z,101215.59
2023-01-01T11:15:44.762Z,101189.41
2023-01-01T11:18:15.611Z,101218.13
2023-01-01T11:20:45.774Z,101221.19
2023-01-01T11:23:32.790Z,101236.06
2023-01-01T11:26:06.534Z,101261.06
2023-01-01T11:28:42.564Z,101297.00
2023-01-01T11:31:18.169Z,101317.72
2023-01-01T11:34:04.877Z,101323.97
2023-01-01T11:36:42.229Z,101317.13
2023-01-01T11:39:27.198Z,101315.34
2023-01-01T11:42:19.217Z,101290.34
2023-01-01T11:45:03.706Z,101298.25
2023-01-01T11:48:09.241Z,101313.56
2023-01-01T11:50:58.970Z,101286.94
2023-01-01T11:53:35.490Z,101291.91
2023-01-01T11:59:17.741Z,101234.38
2023-01-01T12:02:06.658Z,101248.63
2023-01-01T12:04:46.045Z,101241.25
2023-01-01T12:07:28.963Z,101212.88
2023-01-01T12:10:14.244Z,101175.53
2023-01-01T12:13:15.395Z,101166.59
2023-01-01T12:15:58.066Z,101173.19
2023-01-01T12:18:52.083Z,101191.91
2023-01-01T12:21:36.845Z,101218.53
2023-01-01T12:24:25.272Z,101275.53
2023-01-01T12:27:18.027Z,101301.22
2023-01-01T12:30:31.340Z,101260.78
2023-01-01T12:33:25.966Z,101273.28
2023-01-01T12:36:19.176Z,101296.00
2023-01-01T12:39:45.201Z,101301.16
2023-01-01T12:42:20.749Z,101267.53
2023-01-01T12:45:03.221Z,101256.13
2023-01-01T12:47:43.975Z,101241.13
2023-01-01T12:50:23.670Z,101264.06
2023-01-01T12:53:07.453Z,101269.00
2023-01-01T12:56:02.492Z,101291.81
2023-01-01T12:58:35.627Z,101290.56
2023-01-01T13:01:12.173Z,101286.63
2023-01-01T13:03:51.926Z,101294.84
2023-01-01T13:06:28.653Z,101284.13
2023-01-01T13:09:07.805Z,101291.19
2023-01-01T13:11:44.786Z,101288.25
2023-01-01T13:14:19.070Z,101293.16
2023-01-01T13:16:58.726Z,101276.75
2023-01-01T13:19:32.550Z,101280.91
2023-01-01T13:22:55.308Z,101279.34
2023-01-01T13:25:29.471Z,101279.16
2023-01-01T13:28:15.409Z,101279.06
2023-01-01T13:31:00.552Z,101281.59
2023-01-01T13:33:31.579Z,101263.81
2023-01-01T13:36:34.044Z,101271.09
2023-01-01T13:39:03.159Z,101249.63
2023-01-01T13:41:41.782Z,101252.41
2023-01-01T13:44:19.758Z,101248.25
2023-01-01T13:47:08.833Z,101234.78
2023-01-01T13:49:58.038Z,101238.56
2023-01-01T13:53:43.671Z,101239.47
2023-01-01T13:56:07.087Z,101218.94
2023-01-01T13:59:07.905Z,101228.34
2023-01-01T14:01:51.973Z,101234.50
2023-01-01T14:04:37.518Z,101253.75
2023-01-01T14:07:50.173Z,101240.81
2023-01-01T14:10:26.049Z,101231.28
2023-01-01T14:13:01.363Z,101233.16
2023-01-01T14:15:54.453Z,101224.44
2023-01-01T14:18:40.058Z,101244.28
2023-01-01T14:21:28.041Z,101239.84
2023-01-01T14:24:01.831Z,101242.66
2023-01-01T14:26:35.361Z,101229.59
2023-01-01T14:29:09.096Z,101247.97
2023-01-01T14:32:09.044Z,101208.50
2023-01-01T14:34:43.382Z,101228.63
2023-01-01T14:37:23.782Z,101224.44
2023-01-01T14:40:20.879Z,101255.38
2023-01-01T14:43:02.093Z,101228.81
2023-01-01T14:45:45.392Z,101234.47
2023-01-01T14:48:20.758Z,101217.97
2023-01-01T14:50:59.159Z,101206.53
2023-01-01T14:53:35.342Z,101204.69
2023-01-01T14:56:25.930Z,101189.22
2023-01-01T14:58:56.056Z,101200.63
2023-01-01T15:01:26.190Z,101191.03
2023-01-01T15:04:02.302Z,101194.88
2023-01-01T15:06:41.847Z,101196.91
2023-01-01T15:09:19.116Z,101184.78
2023-01-01T15:11:49.387Z,101192.72
2023-01-01T15:14:31.990Z,101169.41
2023-01-01T15:17:04.563Z,101182.00
2023-01-01T15:19:36.534Z,101171.03
2023-01-01T15:22:10.985Z,101167.78
2023-01-01T15:24:41.524Z,101163.25
2023-01-01T15:27:22.821Z,101154.88
2023-01-01T15:29:56.520Z,101149.03
2023-01-01T15:32:27.679Z,101148.50
2023-01-01T15:35:05.620Z,101139.84
2023-01-01T15:37:39.285Z,101136.22
2023-01-01T15:40:32.577Z,101122.06
2023-01-01T15:43:21.015Z,101122.94
2023-01-01T15:45:57.159Z,101112.72
2023-01-01T15:48:37.797Z,101111.03
2023-01-01T15:51:25.916Z,101097.81
2023-01-01T15:54:02.284Z,101095.16
2023-01-01T15:56:33.416Z,101110.84
2023-01-01T15:59:09.500Z,101113.41
2023-01-01T16:01:41.272Z,101122.41
2023-01-01T16:04:11.510Z,101118.31
2023-01-01T16:06:46.067Z,101125.06
2023-01-01T16:09:14.548Z,101128.59
2023-01-01T16:11:42.974Z,101139.06
2023-01-01T16:14:11.152Z,101147.19
2023-01-01T16:16:40.599Z,101152.31
2023-01-01T16:19:17.985Z,101159.41
2023-01-01T16:23:24.382Z,101155.06
2023-01-01T16:24:39.087Z,101147.13
2023-01-01T16:27:20.011Z,101147.13
2023-01-01T16:29:54.484Z,101149.69
2023-01-01T16:32:23.019Z,101148.84
2023-01-01T16:34:51.884Z,101139.31
2023-01-01T16:37:25.587Z,101151.59
2023-01-01T16:39:53.528Z,101139.50
2023-01-01T16:42:22.258Z,101142.31
2023-01-01T16:44:50.318Z,101144.94
2023-01-01T16:47:18.404Z,101130.94
2023-01-01T16:49:47.290Z,101137.53
2023-01-01T16:52:16.474Z,101143.66
2023-01-01T16:54:49.387Z,101147.22
2023-01-01T16:57:17.364Z,101142.94
2023-01-01T16:59:47.585Z,101138.59
2023-01-01T17:02:15.747Z,101123.31
2023-01-01T17:04:43.997Z,101121.44
2023-01-01T17:07:14.179Z,101118.78
2023-01-01T17:09:43.246Z,101114.41
2023-01-01T17:12:20.137Z,101114.50
2023-01-01T17:14:48.708Z,101114.47
2023-01-01T17:17:16.831Z,101121.44
2023-01-01T17:19:44.796Z,101130.00
2023-01-01T17:22:12.779Z,101118.38
2023-01-01T17:24:43.231Z,101118.75
2023-01-01T17:27:22.627Z,101124.38
2023-01-01T17:29:52.582Z,101129.38
2023-01-01T17:32:20.509Z,101132.84
2023-01-01T17:34:50.365Z,101123.09
2023-01-01T17:37:19.589Z,101125.81
2023-01-01T17:39:52.563Z,101121.22
2023-01-01T17:42:25.772Z,101126.34
2023-01-01T17:44:56.912Z,101114.75
2023-01-01T17:47:47.580Z,101120.00
2023-01-01T17:50:35.702Z,101101.56
2023-01-01T17:53:10.615Z,101105.97
2023-01-01T17:55:45.001Z,101108.31
2023-01-01T17:58:18.122Z,101100.63
2023-01-01T18:00:47.561Z,101091.72
2023-01-01T18:03:19.418Z,101100.53
2023-01-01T18:05:47.497Z,101075.09
2023-01-01T18:08:27.020Z,101094.97
2023-01-01T18:10:58.094Z,101083.53
2023-01-01T18:13:29.718Z,101091.81
2023-01-01T18:16:02.746Z,101077.41
2023-01-01T18:18:32.773Z,101065.31
2023-01-01T18:21:03.632Z,101058.81
2023-01-01T18:23:36.598Z,101049.63
2023-01-01T18:26:10.407Z,101044.09
2023-01-01T18:28:40.230Z,101037.06
2023-01-01T18:31:10.324Z,101027.50
2023-01-01T18:33:46.868Z,101025.84
2023-01-01T18:36:18.361Z,101005.97
2023-01-01T18:38:56.329Z,101003.16
2023-01-01T18:41:43.812Z,101003.00
2023-01-01T18:44:28.874Z,100975.09
2023-01-01T18:47:13.267Z,100978.66
2023-01-01T18:49:51.948Z,100950.91
2023-01-01T18:52:34.898Z,100946.53
2023-01-01T18:55:20.887Z,100947.66
2023-01-01T18:58:21.358Z,100938.16
2023-01-01T19:01:03.225Z,100905.78
2023-01-01T19:03:41.037Z,100897.03
2023-01-01T19:06:27.170Z,100878.44
2023-01-01T19:09:17.227Z,100881.34
2023-01-01T19:11:56.555Z,100865.34
2023-01-01T19:14:35.571Z,100867.25
2023-01-01T19:17:38.317Z,100858.59
2023-01-01T19:20:32.526Z,100843.78
2023-01-01T19:23:05.772Z,100841.09
2023-01-01T19:26:01.919Z,100813.25
2023-01-01T19:28:39.943Z,100823.69
2023-01-01T19:31:21.089Z,100817.47
2023-01-01T19:33:54.262Z,100795.50
2023-01-01T19:36:22.235Z,100794.72
2023-01-01T19:38:50.550Z,100805.38
2023-01-01T19:41:19.733Z,100799.22
2023-01-01T19:43:50.977Z,100786.75
2023-01-01T19:46:25.651Z,100793.25
2023-01-01T19:49:00.855Z,100795.75
2023-01-01T19:51:35.803Z,100801.88
2023-01-01T19:54:08.552Z,100807.88
2023-01-01T19:56:36.623Z,100809.00
2023-01-01T19:59:09.300Z,100812.50
2023-01-01T20:01:41.984Z,100805.69
2023-01-01T20:04:20.990Z,100809.75
2023-01-01T20:06:50.897Z,100794.13
2023-01-01T20:09:22.582Z,100785.31
2023-01-01T20:11:50.948Z,100799.09
2023-01-01T20:14:23.516Z,100801.06
2023-01-01T20:16:53.427Z,100810.88
2023-01-01T20:19:22.759Z,100809.34
2023-01-01T20:22:08.585Z,100805.03
2023-01-01T20:24:39.372Z,100812.97
2023-01-01T20:27:08.983Z,100808.38
2023-01-01T20:29:36.928Z,100817.34
2023-01-01T20:32:07.554Z,100814.06
2023-01-01T20:34:40.649Z,100814.28
2023-01-01T20:37:26.508Z,100803.00
2023-01-01T20:40:50.293Z,100824.22
2023-01-01T20:43:37.484Z,100807.22
2023-01-01T20:46:05.555Z,100826.41
2023-01-01T20:48:34.761Z,100809.09
2023-01-01T20:51:04.310Z,100812.59
2023-01-01T20:53:34.056Z,100796.19
2023-01-01T20:56:03.939Z,100785.88
2023-01-01T20:58:31.959Z,100799.78
2023-01-01T21:01:01.544Z,100792.91
2023-01-01T21:03:29.741Z,100789.50
2023-01-01T21:06:08.090Z,100786.94
2023-01-01T21:08:46.698Z,100782.69
2023-01-01T21:11:15.081Z,100767.88
2023-01-01T21:13:46.600Z,100760.88
2023-01-01T21:16:18.266Z,100757.31
2023-01-01T21:18:47.565Z,100741.53
2023-01-01T21:21:23.316Z,100746.81
2023-01-01T21:23:56.257Z,100732.84
2023-01-01T21:26:38.157Z,100716.16
2023-01-01T21:29:14.360Z,100713.50
2023-01-01T21:31:43.933Z,100710.22
2023-01-01T21:34:32.019Z,100715.97
2023-01-01T21:37:05.041Z,100698.72
2023-01-01T21:39:34.425Z,100718.69
2023-01-01T21:42:19.051Z,100698.53
2023-01-01T21:44:55.769Z,100684.53
2023-01-01T21:47:25.730Z,100697.56
2023-01-01T21:50:01.563Z,100683.38
2023-01-01T21:52:34.611Z,100686.97
2023-01-01T21:55:09.277Z,100678.81
2023-01-01T21:57:37.950Z,100685.06
2023-01-01T22:00:19.870Z,100686.91
2023-01-01T22:02:50.337Z,100673.69
2023-01-01T22:05:31.111Z,100660.41
2023-01-01T22:08:21.630Z,100643.53
2023-01-01T22:11:02.469Z,100640.72
2023-01-01T22:13:30.382Z,100644.38
2023-01-01T22:16:03.142Z,100641.75
2023-01-01T22:18:40.088Z,100625.94
2023-01-01T22:21:15.872Z,100624.09
2023-01-01T22:23:44.628Z,100608.41
2023-01-01T22:26:20.022Z,100608.25
2023-01-01T22:28:50.621Z,100600.38
2023-01-01T22:31:27.969Z,100576.72
2023-01-01T22:34:02.981Z,100587.91
2023-01-01T22:36:35.283Z,100586.97
2023-01-01T22:39:12.705Z,100583.47
2023-01-01T22:41:43.305Z,100570.31
2023-01-01T22:44:14.490Z,100571.13
2023-01-01T22:46:42.967Z,100559.63
2023-01-01T22:49:19.492Z,100554.28
2023-01-01T22:51:48.449Z,100543.66
2023-01-01T22:54:17.813Z,100542.63
2023-01-01T22:57:01.971Z,100519.84
2023-01-01T22:59:31.895Z,100526.69
2023-01-01T23:02:03.722Z,100518.81
2023-01-01T23:04:31.799Z,100509.81
2023-01-01T23:08:23.544Z,100496.56
2023-01-01T23:11:24.070Z,100467.91
2023-01-01T23:14:15.204Z,100468.38
2023-01-01T23:16:53.776Z,100474.28
2023-01-01T23:19:43.362Z,100472.34
2023-01-01T23:22:23.955Z,100459.81
2023-01-01T23:25:31.654Z,100435.56
2023-01-01T23:28:00.708Z,100449.81
2023-01-01T23:30:31.311Z,100452.16
2023-01-01T23:32:59.441Z,100435.28
2023-01-01T23:35:33.609Z,100446.34
2023-01-01T23:38:02.851Z,100436.91
2023-01-01T23:40:30.761Z,100437.22
2023-01-01T23:42:59.285Z,100425.47
2023-01-01T23:45:42.715Z,100419.88
2023-01-01T23:48:16.309Z,100410.25
2023-01-01T23:50:46.881Z,100407.59
2023-01-01T23:53:16.802Z,100404.00
2023-01-01T23:55:45.127Z,100400.25
2023-01-01T23:58:13.297Z,100393.16
